Latest Weather Observations for Tindal

IDD60801

Issued at 8:21 pm CST Sunday 16 December 2018 (issued every 10 minutes, with the page automatically refreshed every 10 minutes)

About weather observations | Map of weather stations | Latest weather observations for NT | Other Formats
Station Details ID: 014932 Name: TINDAL RAAF Lat: -14.52 Lon: 132.38 Height: 133.6 m
Data from the previous 72 hours. | See also: Recent months at Tindal
Date/Time
CST
Temp
°C
App
Temp
°C
Dew
Point
°C
Rel
Hum
%
Delta-T
°C
Wind Press
QNH
hPa
Press
MSL
hPa
Rain since
9am
mm
Dir  Spd
km/h
Gust
km/h
Spd
kts
Gust
kts
16/08:00pm 33.2 35.5 22.0 51 7.7 NW 13 15 7 8 1004.8 1003.8 0.0
16/07:30pm 34.0 36.3 22.1 50 8.2 WNW 13 15 7 8 1004.3 1003.3 0.0
16/07:00pm 34.8 36.6 21.8 46 8.9 WNW 15 20 8 11 1003.9 1002.9 0.0
16/06:30pm 35.8 36.9 21.3 43 9.9 WNW 17 24 9 13 1003.7 1002.7 0.0
16/06:00pm 36.6 37.5 21.6 41 10.3 W 19 24 10 13 1003.4 1002.4 0.0
16/05:30pm 37.1 38.8 21.6 40 10.7 WNW 15 24 8 13 1003.3 1002.2 0.0
16/05:00pm 37.0 38.3 22.3 42 10.2 WNW 19 24 10 13 1003.1 1002.0 0.0
16/04:30pm 37.2 38.2 21.7 40 10.7 WNW 19 24 10 13 1003.3 1002.2 0.0
16/04:00pm 36.8 38.0 21.4 41 10.5 W 17 22 9 12 1003.7 1002.7 0.0
16/03:30pm 37.7 39.5 21.8 40 11.0 W 15 22 8 12 1004.0 1003.0 0.0
16/03:00pm 36.4 37.4 21.0 40 10.5 W 17 30 9 16 1004.5 1003.5 0.0
16/02:30pm 37.1 38.8 21.6 40 10.7 WNW 15 22 8 12 1004.7 1003.7 0.0
16/02:00pm 36.5 36.9 20.7 39 10.7 NW 19 26 10 14 1005.1 1004.1 0.0
16/01:30pm 36.3 36.9 21.3 41 10.3 WNW 20 28 11 15 1005.5 1004.5 0.0
16/01:00pm 35.3 37.0 21.6 45 9.4 NW 15 24 8 13 1006.0 1005.0 0.0
16/12:30pm 35.7 37.1 21.9 44 9.5 NW 17 24 9 13 1006.2 1005.2 0.0
16/12:00pm 35.3 36.6 21.6 45 9.4 NW 17 24 9 13 1006.5 1005.5 0.0
16/11:30am 34.5 35.6 21.2 46 9.1 WNW 17 22 9 12 1007.0 1006.0 0.0
16/11:00am 33.6 35.7 21.7 49 8.1 NW 13 20 7 11 1007.3 1006.3 0.0
16/10:30am 32.5 33.7 21.4 52 7.5 W 17 30 9 16 1007.5 1006.5 0.0
16/10:00am 31.9 33.5 20.8 51 7.5 NW 13 20 7 11 1007.6 1006.6 0.0
16/09:30am 30.9 31.9 21.1 56 6.6 WNW 17 24 9 13 1007.7 1006.7 0.0
16/09:00am 30.2 31.8 20.7 56 6.4 WNW 13 20 7 11 1008.1 1007.0 0.0
16/08:30am 29.2 31.3 21.7 64 5.1 WNW 13 15 7 8 1008.1 1007.0 0.0
16/08:00am 28.4 30.5 21.7 67 4.5 NW 13 19 7 10 1008.1 1007.0 0.0
16/07:30am 27.4 29.7 21.4 70 4.0 NNW 11 15 6 8 1007.7 1006.7 0.0
16/07:00am 26.7 29.3 21.2 72 3.7 NNW 9 15 5 8 1007.4 1006.4 0.0
16/06:30am 26.7 28.4 21.0 71 3.8 N 13 17 7 9 1007.1 1006.1 0.0
16/06:00am 26.6 28.7 20.9 71 3.8 N 11 17 6 9 1007.2 1006.2 0.0
16/05:30am 27.0 29.9 21.1 70 3.9 WNW 7 11 4 6 1006.9 1005.9 0.0
16/05:00am 27.2 29.6 20.8 68 4.2 SW 9 11 5 6 1007.1 1006.1 0.0
16/04:30am 27.3 28.8 20.6 67 4.4 SW 13 20 7 11 1006.6 1005.6 0.0
16/04:00am 27.4 30.0 21.9 72 3.7 W 11 30 6 16 1006.5 1005.5 0.0
16/03:30am 27.5 31.4 21.8 71 3.8 WSW 4 9 2 5 1005.1 1004.1 0.0
16/03:00am 27.3 29.8 21.8 72 3.7 SW 11 13 6 7 1004.5 1003.5 0.0
16/02:30am 27.9 30.9 21.9 70 4.1 NW 9 13 5 7 1003.7 1002.7 0.0
16/02:00am 28.6 30.9 21.4 65 4.8 N 11 15 6 8 1003.4 1002.4 0.0
16/01:30am 28.1 30.4 20.6 63 5.0 N 9 15 5 8 1003.9 1002.9 0.0
16/01:00am 28.1 30.0 20.6 63 5.0 NW 11 15 6 8 1004.6 1003.6 0.0
16/12:30am 29.0 30.4 21.0 62 5.4 WNW 15 20 8 11 1005.4 1004.4 0.0
16/12:00am 30.2 31.3 22.4 63 5.3 W 20 28 11 15 1006.1 1005.1 0.0
 
Date/Time
CST
Temp
°C
App
Temp
°C
Dew
Point
°C
Rel
Hum
%
Delta-T
°C
Wind Press
QNH
hPa
Press
MSL
hPa
Rain since
9am
mm
Dir  Spd
km/h
Gust
km/h
Spd
kts
Gust
kts
15/11:30pm 30.7 32.7 23.9 67 4.7 WNW 20 33 11 18 1006.3 1005.3 0.0
15/11:00pm 31.0 33.6 23.9 66 5.0 WNW 17 24 9 13 1006.3 1005.3 0.0
15/10:30pm 31.2 33.6 23.6 64 5.3 WNW 17 22 9 12 1006.0 1005.0 0.0
15/10:00pm 30.7 34.6 23.6 66 4.9 W 9 13 5 7 1005.9 1004.9 0.0
15/09:30pm 31.4 36.4 23.8 64 5.3 WNW 4 7 2 4 1005.1 1004.1 0.0
15/09:00pm 32.1 37.0 23.1 59 6.2 NW 2 9 1 5 1004.3 1003.3 0.0
15/08:30pm 32.0 36.1 23.0 59 6.2 NW 6 7 3 4 1004.6 1003.6 0.0
15/08:00pm 31.8 36.0 23.1 60 6.0 W 6 7 3 4 1004.3 1003.3 0.0
15/07:30pm 33.4 36.5 22.2 52 7.7 NNW 9 11 5 6 1004.2 1003.2 0.0
15/07:00pm 33.9 36.9 22.0 49 8.2 NNW 9 13 5 7 1003.6 1002.6 0.0
15/06:30pm 35.0 37.8 22.3 47 8.8 WNW 11 17 6 9 1003.3 1002.2 0.0
15/06:00pm 35.4 37.9 22.4 47 9.0 WNW 13 17 7 9 1003.1 1002.0 0.0
15/05:30pm 35.5 37.4 22.1 45 9.3 NW 15 20 8 11 1002.6 1001.5 0.0
15/05:00pm 35.4 36.7 22.4 47 9.0 WNW 19 28 10 15 1002.6 1001.5 0.0
15/04:30pm 35.5 36.8 22.4 46 9.1 WNW 19 26 10 14 1002.7 1001.6 0.0
15/04:00pm 35.4 37.8 23.0 48 8.6 WNW 15 20 8 11 1002.8 1001.7 0.0
15/03:30pm 35.2 36.8 22.9 49 8.6 WNW 19 26 10 14 1003.2 1002.1 0.0
15/03:00pm 36.0 38.7 22.9 46 9.1 W 13 26 7 14 1003.5 1002.5 0.0
15/02:30pm 35.9 38.4 22.5 46 9.3 NW 13 20 7 11 1003.9 1002.9 0.0
15/02:00pm 35.0 37.8 23.0 49 8.3 NW 13 20 7 11 1004.2 1003.2 0.0
15/01:30pm 34.6 37.2 22.6 49 8.3 NW 13 22 7 12 1004.8 1003.8 0.0
15/01:00pm 33.8 36.0 23.2 54 7.4 WNW 17 24 9 13 1005.4 1004.4 0.0
15/12:30pm 33.8 36.7 23.2 54 7.4 NW 13 22 7 12 1005.8 1004.8 0.0
15/12:00pm 32.8 35.0 23.2 57 6.7 WNW 17 28 9 15 1006.4 1005.4 0.0
15/11:30am 32.6 34.9 23.5 58 6.3 WNW 17 22 9 12 1006.8 1005.8 0.0
15/11:00am 32.0 34.2 23.3 60 6.0 WNW 17 24 9 13 1007.4 1006.4 0.0
15/10:30am 31.6 34.8 23.7 63 5.5 NW 13 20 7 11 1007.4 1006.4 0.0
15/10:00am 30.9 33.2 23.5 64 5.1 NW 17 24 9 13 1007.3 1006.3 0.0
15/09:30am 30.6 32.9 23.5 66 4.9 NW 17 24 9 13 1007.1 1006.1 0.0
15/09:00am 30.1 31.9 23.5 67 4.6 NW 20 26 11 14 1007.1 1006.1 0.0
15/08:30am 29.6 31.9 23.5 69 4.2 NW 17 22 9 12 1007.0 1006.0 0.0
15/08:00am 29.0 31.4 23.0 70 4.1 NW 15 19 8 10 1007.0 1006.0 0.0
15/07:30am 28.5 31.5 23.4 74 3.5 WNW 13 19 7 10 1006.5 1005.5 0.0
15/07:00am 27.8 31.1 23.2 76 3.2 NW 11 13 6 7 1006.5 1005.5 0.0
15/06:30am 27.8 31.7 23.0 75 3.3 N 7 11 4 6 1006.5 1005.5 0.0
15/06:00am 26.9 30.4 22.1 75 3.2 NNE 7 9 4 5 1006.4 1005.4 0.0
15/05:30am 26.9 29.6 21.4 72 3.7 N 9 13 5 7 1005.7 1004.7 0.0
15/05:00am 27.1 29.7 21.2 70 3.9 N 9 13 5 7 1005.1 1004.1 0.0
15/04:30am 27.1 29.3 21.2 70 3.9 NNE 11 15 6 8 1005.0 1004.0 0.0
15/04:00am 27.7 30.1 22.2 72 3.7 NE 13 17 7 9 1005.3 1004.3 0.0
15/03:30am 28.6 32.4 23.5 74 3.5 NNE 9 13 5 7 1005.4 1004.4 0.0
15/03:00am 28.2 32.5 24.2 79 2.8 NNW 9 9 5 5 1005.5 1004.5 0.0
15/02:30am 28.5 32.6 23.9 76 3.2 N 9 11 5 6 1005.4 1004.4 0.0
15/02:00am 28.5 33.0 23.9 76 3.2 ENE 7 13 4 7 1005.5 1004.5 0.0
15/01:30am 28.7 31.8 23.6 74 3.5 NW 13 15 7 8 1005.0 1004.0 0.0
15/01:00am 29.0 33.0 23.7 73 3.7 WNW 9 15 5 8 1005.1 1004.1 0.0
15/12:30am 29.4 32.5 23.6 71 4.0 WNW 13 20 7 11 1004.7 1003.7 0.0
15/12:00am 29.8 31.6 23.3 68 4.5 WNW 19 24 10 13 1004.6 1003.6 0.0
 
Date/Time
CST
Temp
°C
App
Temp
°C
Dew
Point
°C
Rel
Hum
%
Delta-T
°C
Wind Press
QNH
hPa
Press
MSL
hPa
Rain since
9am
mm
Dir  Spd
km/h
Gust
km/h
Spd
kts
Gust
kts
14/11:30pm 30.3 31.5 23.2 65 4.9 WNW 22 30 12 16 1004.6 1003.6 0.0
14/11:00pm 30.7 32.2 23.1 64 5.2 NW 20 28 11 15 1005.0 1004.0 0.0
14/10:30pm 31.3 32.9 22.9 61 5.8 NW 19 24 10 13 1005.2 1004.2 0.0
14/10:00pm 31.9 34.3 22.9 59 6.2 NW 15 20 8 11 1005.0 1004.0 0.0
14/09:30pm 31.9 34.5 22.6 58 6.4 NW 13 17 7 9 1004.6 1003.6 0.0
14/09:00pm 32.0 35.2 22.4 57 6.6 WNW 9 13 5 7 1004.3 1003.3 0.0
14/08:30pm 32.7 35.2 22.5 55 7.0 WNW 13 17 7 9 1003.3 1002.2 0.0
14/08:00pm 33.2 36.0 22.3 52 7.5 WNW 11 17 6 9 1003.2 1002.1 0.0
14/07:30pm 33.5 36.3 22.3 52 7.7 W 11 13 6 7 1002.9 1001.8 0.0
14/07:00pm 34.4 36.7 22.1 48 8.5 W 13 19 7 10 1002.8 1001.7 0.0
14/06:30pm 35.4 37.3 22.0 45 9.2 WNW 15 20 8 11 1002.4 1001.3 0.0
14/06:00pm 36.1 37.8 22.3 45 9.6 WNW 17 22 9 12 1002.0 1000.9 0.0
14/05:30pm 36.4 38.3 21.4 41 10.3 WNW 13 19 7 10 1001.9 1000.8 0.0
14/05:00pm 37.1 39.5 21.6 40 10.7 WSW 11 15 6 8 1001.7 1000.6 0.0
14/04:30pm 37.3 40.8 22.2 41 10.5 WSW 7 15 4 8 1001.4 1000.3 0.0
14/04:00pm 37.0 39.8 21.6 41 10.6 W 9 20 5 11 1001.8 1000.7 0.0
14/03:30pm 37.0 39.8 21.6 41 10.6 S 9 15 5 8 1002.1 1001.0 0.0
14/03:00pm 35.9 37.0 21.3 42 10.0 SSW 17 24 9 13 1002.4 1001.3 0.0
14/02:30pm 36.4 38.1 20.2 38 11.0 WSW 11 20 6 11 1002.6 1001.5 0.0
14/02:00pm 36.2 38.0 21.2 41 10.2 WSW 13 19 7 10 1003.1 1002.0 0.0
14/01:30pm 35.9 38.4 21.7 43 9.8 SSW 11 17 6 9 1003.4 1002.4 0.0
14/01:00pm 34.8 37.5 20.7 43 9.5 WSW 7 13 4 7 1003.7 1002.7 0.0
14/12:30pm 35.0 36.5 21.3 45 9.4 SSW 15 24 8 13 1004.3 1003.3 0.0
14/12:00pm 34.8 38.1 21.8 46 8.9 W 7 13 4 7 1004.6 1003.6 0.0
14/11:30am 33.8 35.5 20.9 46 8.7 SW 13 20 7 11 1005.1 1004.1 0.0
14/11:00am 33.2 33.9 20.4 47 8.6 SSW 17 22 9 12 1005.5 1004.5 0.0
14/10:30am 32.4 35.2 21.6 53 7.4 SW 9 17 5 9 1006.0 1005.0 0.0
14/10:00am 31.0 34.1 21.5 57 6.4 SW 7 17 4 9 1006.3 1005.3 0.0
14/09:30am 29.4 32.1 21.4 62 5.4 SW 9 15 5 8 1006.5 1005.5 0.0
14/09:00am 28.1 31.2 22.1 70 4.1 SW 9 11 5 6 1006.4 1005.4 0.0
14/08:30am 27.2 30.6 21.7 72 3.7 S 6 11 3 6 1006.5 1005.5 0.0
14/08:00am 26.6 30.0 22.0 76 3.1 SSW 7 11 4 6 1006.4 1005.4 0.0
14/07:30am 26.1 29.5 22.0 78 2.8 NW 7 9 4 5 1006.3 1005.3 0.0
14/07:00am 25.6 28.9 21.9 80 2.5 WSW 7 9 4 5 1006.1 1005.1 0.0
14/06:30am 25.2 28.3 22.1 83 2.1 W 9 11 5 6 1005.8 1004.8 0.0
14/06:00am 25.1 28.8 22.2 84 2.0 WSW 6 9 3 5 1005.3 1004.3 0.0
14/05:30am 25.2 30.2 22.5 85 1.8 CALM 0 6 0 3 1005.1 1004.1 0.0
14/05:00am 25.4 28.2 22.3 83 2.1 WNW 11 15 6 8 1005.4 1004.4 0.0
14/04:30am 25.6 28.3 22.1 81 2.4 NW 11 17 6 9 1005.7 1004.7 0.0
14/04:00am 25.7 28.4 22.2 81 2.4 W 11 15 6 8 1005.2 1004.2 0.0
14/03:30am 25.7 28.3 22.0 80 2.5 WSW 11 17 6 9 1004.7 1003.7 0.0
14/03:00am 25.9 29.0 22.2 80 2.5 SSW 9 11 5 6 1005.0 1004.0 0.0
14/02:30am 26.0 29.1 22.1 79 2.6 WSW 9 13 5 7 1004.5 1003.5 0.0
14/02:00am 26.0 29.1 22.1 79 2.6 NW 9 13 5 7 1003.5 1002.5 0.0
14/01:30am 26.1 29.0 22.4 80 2.5 NW 11 15 6 8 1003.8 1002.8 0.0
14/01:00am 26.3 29.6 22.6 80 2.5 NNW 9 13 5 7 1004.3 1003.3 0.0
14/12:30am 26.6 30.0 22.7 79 2.7 WNW 9 13 5 7 1004.4 1003.4 0.0
14/12:00am 27.0 30.0 22.6 77 3.0 NNW 11 15 6 8 1004.3 1003.3 0.0
 
Date/Time
CST
Temp
°C
App
Temp
°C
Dew
Point
°C
Rel
Hum
%
Delta-T
°C
Wind Press
QNH
hPa
Press
MSL
hPa
Rain since
9am
mm
Dir  Spd
km/h
Gust
km/h
Spd
kts
Gust
kts
13/11:30pm 27.4 31.3 23.0 77 3.0 WNW 7 9 4 5 1005.0 1004.0 0.0
13/11:00pm 27.8 30.6 23.0 75 3.3 SW 13 20 7 11 1005.7 1004.7 0.0
13/10:30pm 28.3 30.1 22.5 71 4.0 SW 17 24 9 13 1005.5 1004.5 0.0
13/10:00pm 28.8 30.8 22.3 68 4.4 SSW 15 20 8 11 1005.2 1004.2 0.0
13/09:30pm 29.4 32.9 22.9 68 4.5 SSW 9 11 5 6 1005.5 1004.5 0.0
13/09:00pm 30.0 33.5 22.9 65 4.9 WSW 9 13 5 7 1004.8 1003.8 0.0
13/08:30pm 30.4 33.5 22.8 64 5.2 SW 11 17 6 9 1004.4 1003.4 0.0

Other Formats:

Comma delimited format used in spreadsheet applications
http://www.bom.gov.au/fwo/IDD60801/IDD60801.94131.axf

JavaScript Object Notation format (JSON) in row-major order
http://www.bom.gov.au/fwo/IDD60801/IDD60801.94131.json